Academy, New Jersey
Current Conditions -  °F | °C
As of 4:51 PM on Monday 20 Oct 2014 (Local Time) from KEWR Reporting Station
Broken Clouds Broken Clouds  
Wind Chill: 61°   Ceiling: 25000
Heat Index: 61°   Visibility: 10mi
Dew Point: 37°   Wind: 10mph
Humidity: 41%   Direction: 200°SSW
Pressure: 29.98"   Gusts: NA
Location:  40.7334°N, 74.1735°W
Report Text: KEWR 202051Z 20009KT 10SM FEW140 SCT190 BKN250 16/03 A2998 RMK AO2 SLP151 T01610028 56019
Loading
Personal Weather Stations






























Interactive Weather Map
Tropical Storm Tracking
New forecast layout! Learn more

10-Day Weather Forecast

Advertisements
Track Severe Weather on mobile